Time;durP1;ratioP1;P1;durP2;ratioP2;P2;SDS_P1;SDS_P2;PMS_P1;PMS_P2;Temp;Humidity;BMP_temperature;BMP_pressure;BME280_temperature;BME280_humidity;BME280_pressure;Samples;Min_cycle;Max_cycle;Signal;HPM_P1;HPM_P2
2023/03/11 00:01:10;;;;;;;11.02;6.70;;;;;;;9.81;100.00;92877.56;5130925;27;20204;-76
2023/03/11 00:03:37;;;;;;;7.00;4.43;;;;;;;9.69;100.00;92850.75;5146070;27;20279;-74
2023/03/11 00:06:04;;;;;;;8.48;5.53;;;;;;;9.64;100.00;92869.97;5142448;27;20639;-75
2023/03/11 00:08:31;;;;;;;4.25;2.55;;;;;;;9.42;100.00;92876.22;5144724;27;20200;-76
2023/03/11 00:11:00;;;;;;;3.63;2.28;;;;;;;9.33;100.00;92843.25;5130807;27;20242;-76
2023/03/11 00:13:29;;;;;;;2.13;1.83;;;;;;;9.21;100.00;92850.41;5144296;27;20212;-75
2023/03/11 00:15:58;;;;;;;0.93;0.82;;;;;;;9.18;100.00;92859.22;5140633;27;20698;-75
2023/03/11 00:18:29;;;;;;;0.98;0.80;;;;;;;8.97;100.00;92840.00;5136661;27;20751;-76
2023/03/11 00:20:57;;;;;;;0.85;0.70;;;;;;;8.96;100.00;92840.34;5139975;27;20205;-75
2023/03/11 00:23:24;;;;;;;2.92;0.90;;;;;;;8.88;100.00;92836.78;5144492;27;20283;-75
2023/03/11 00:25:51;;;;;;;1.00;0.90;;;;;;;8.99;100.00;92851.22;5142931;27;20208;-76
2023/03/11 00:28:18;;;;;;;1.35;1.00;;;;;;;9.04;100.00;92853.59;5151537;27;20208;-76
2023/03/11 00:30:46;;;;;;;0.90;0.77;;;;;;;9.08;100.00;92854.44;5139168;27;20667;-76
2023/03/11 00:33:16;;;;;;;1.40;0.77;;;;;;;9.10;100.00;92852.16;5144212;27;20201;-76
2023/03/11 00:35:43;;;;;;;0.90;0.80;;;;;;;9.23;100.00;92839.25;5143443;27;20205;-77
2023/03/11 00:38:14;;;;;;;4.13;0.73;;;;;;;9.36;100.00;92842.53;5144619;27;20281;-76
2023/03/11 00:40:41;;;;;;;0.68;0.57;;;;;;;9.36;100.00;92837.91;5130096;27;20189;-75
2023/03/11 00:43:08;;;;;;;2.40;1.05;;;;;;;9.29;100.00;92847.84;5130799;27;20676;-76
2023/03/11 00:45:37;;;;;;;3.75;0.80;;;;;;;9.23;100.00;92839.25;5143596;27;20217;-76
2023/03/11 00:48:06;;;;;;;1.08;0.70;;;;;;;9.39;100.00;92842.59;5150396;27;20594;-76
2023/03/11 00:50:35;;;;;;;1.85;0.95;;;;;;;9.27;100.00;92830.06;5135723;27;20664;-77
2023/03/11 00:53:02;;;;;;;0.70;0.70;;;;;;;9.21;100.00;92819.91;5143020;27;20270;-75
2023/03/11 00:55:31;;;;;;;1.98;0.80;;;;;;;9.11;100.00;92798.94;5143616;27;20802;-76
2023/03/11 00:57:59;;;;;;;2.35;0.60;;;;;;;9.11;100.00;92794.31;5138002;27;20231;-76
2023/03/11 01:00:28;;;;;;;0.70;0.70;;;;;;;9.06;100.00;92793.84;5136401;27;20265;-76
2023/03/11 01:02:55;;;;;;;1.27;0.65;;;;;;;8.91;100.00;92795.53;5141638;27;20201;-76
2023/03/11 01:05:26;;;;;;;0.95;0.60;;;;;;;8.74;100.00;92796.81;5143505;27;20204;-76
2023/03/11 01:07:53;;;;;;;0.57;0.52;;;;;;;8.83;100.00;92799.25;5139210;27;20196;-77
2023/03/11 01:10:20;;;;;;;1.55;0.80;;;;;;;8.84;100.00;92784.63;5136116;27;20213;-76
2023/03/11 01:12:47;;;;;;;2.55;0.88;;;;;;;8.99;100.00;92778.31;5140288;27;20613;-76
2023/03/11 01:15:19;;;;;;;6.50;1.10;;;;;;;8.94;100.00;92783.22;5143033;27;20192;-76
2023/03/11 01:17:46;;;;;;;1.35;1.02;;;;;;;9.00;100.00;92781.78;5139677;27;20269;-76
2023/03/11 01:20:13;;;;;;;0.40;0.40;;;;;;;8.85;100.00;92770.00;5136224;27;20293;-76
2023/03/11 01:22:42;;;;;;;0.45;0.45;;;;;;;8.75;100.00;92765.19;5150272;27;20231;-75
2023/03/11 01:25:12;;;;;;;1.10;0.80;;;;;;;8.81;100.00;92761.06;5144905;27;20254;-76
2023/03/11 01:27:39;;;;;;;1.77;1.00;;;;;;;8.81;100.00;92755.66;5143221;27;20196;-76
2023/03/11 01:30:07;;;;;;;0.85;0.75;;;;;;;8.91;100.00;92746.94;5143635;27;20545;-75
2023/03/11 01:32:34;;;;;;;0.75;0.60;;;;;;;8.85;100.00;92753.78;5143056;27;20250;-75
2023/03/11 01:35:01;;;;;;;4.22;0.68;;;;;;;8.69;100.00;92742.34;5136439;27;20815;-75
2023/03/11 01:37:27;;;;;;;1.45;0.90;;;;;;;8.80;100.00;92725.19;5149678;27;20227;-75
2023/03/11 01:39:55;;;;;;;1.23;0.90;;;;;;;8.66;100.00;92721.47;5129178;28;20601;-75
2023/03/11 01:42:22;;;;;;;0.98;0.70;;;;;;;8.59;100.00;92707.88;5143022;27;20204;-74
2023/03/11 01:44:49;;;;;;;1.70;1.20;;;;;;;8.52;100.00;92703.94;5136578;27;20786;-75
2023/03/11 01:47:33;;;;;;;1.00;0.82;;;;;;;8.48;100.00;92691.50;5136321;27;20250;-75
2023/03/11 01:50:00;;;;;;;0.50;0.50;;;;;;;8.51;100.00;92702.38;5139767;27;20197;-75
2023/03/11 01:52:28;;;;;;;1.08;0.85;;;;;;;8.40;100.00;92696.03;5131777;27;20658;-74
2023/03/11 01:54:57;;;;;;;1.38;0.80;;;;;;;8.38;100.00;92709.09;5139322;27;20605;-74
2023/03/11 01:57:23;;;;;;;0.50;0.50;;;;;;;8.34;100.00;92719.03;5132159;27;20228;-75
2023/03/11 01:59:53;;;;;;;1.25;0.90;;;;;;;8.31;100.00;92727.84;5139148;27;20200;-76
2023/03/11 02:02:25;;;;;;;1.17;0.77;;;;;;;8.31;100.00;92746.72;5147705;27;20200;-75
2023/03/11 02:04:54;;;;;;;0.77;0.60;;;;;;;8.28;100.00;92766.31;5150152;27;20655;-74
2023/03/11 02:07:21;;;;;;;4.57;1.52;;;;;;;8.27;100.00;92756.66;5136321;27;20706;-76
2023/03/11 02:09:50;;;;;;;2.30;1.35;;;;;;;8.29;100.00;92762.47;5137818;27;20257;-76
2023/03/11 02:12:19;;;;;;;2.58;1.60;;;;;;;8.32;100.00;92758.31;5143059;27;20612;-76
2023/03/11 02:14:48;;;;;;;2.40;1.77;;;;;;;8.33;100.00;92755.28;5142524;27;20281;-76
2023/03/11 02:17:16;;;;;;;2.47;1.77;;;;;;;8.35;100.00;92766.44;5128867;28;20290;-75
2023/03/11 02:19:58;;;;;;;4.03;2.55;;;;;;;8.43;100.00;92770.84;5142911;27;20244;-75
2023/03/11 02:22:27;;;;;;;3.40;2.72;;;;;;;8.40;100.00;92771.56;5138666;27;20204;-75
2023/03/11 02:25:01;;;;;;;4.38;2.92;;;;;;;8.40;100.00;92774.25;5146826;27;20193;-77
2023/03/11 02:27:33;;;;;;;3.28;2.20;;;;;;;8.48;100.00;92781.31;5141959;27;20191;-75
2023/03/11 02:30:01;;;;;;;3.47;2.10;;;;;;;8.38;100.00;92779.22;5143727;27;20246;-80
2023/03/11 02:32:28;;;;;;;2.85;1.92;;;;;;;8.32;100.00;92779.91;5145222;27;20200;-75
2023/03/11 02:34:55;;;;;;;2.97;2.45;;;;;;;8.46;100.00;92788.25;5147975;27;20257;-76
2023/03/11 02:37:22;;;;;;;3.17;2.03;;;;;;;8.42;100.00;92779.28;5145523;27;20271;-76
2023/03/11 02:39:51;;;;;;;4.30;2.38;;;;;;;8.47;100.00;92777.06;5139216;27;20196;-75
2023/03/11 02:42:22;;;;;;;4.15;2.03;;;;;;;8.34;100.00;92767.59;5153103;27;20200;-76
2023/03/11 02:44:57;;;;;;;3.50;2.05;;;;;;;8.39;100.00;92772.69;5139697;27;20288;-75
2023/03/11 02:47:26;;;;;;;3.85;2.80;;;;;;;8.46;100.00;92780.16;5138589;27;20716;-76
2023/03/11 02:49:55;;;;;;;4.40;2.90;;;;;;;8.55;100.00;92786.84;5153459;27;20200;-76
2023/03/11 02:52:22;;;;;;;6.00;3.70;;;;;;;8.61;100.00;92800.06;5138940;27;20193;-76
2023/03/11 02:54:49;;;;;;;5.90;3.72;;;;;;;8.72;100.00;92798.31;5143790;27;20229;-75
2023/03/11 02:57:16;;;;;;;8.32;4.00;;;;;;;8.74;100.00;92796.81;5148158;27;20285;-77
2023/03/11 02:59:42;;;;;;;7.00;3.72;;;;;;;8.77;100.00;92800.69;5143594;27;20253;-77
2023/03/11 03:02:10;;;;;;;7.38;3.58;;;;;;;8.80;100.00;92794.59;5146387;27;20211;-76
2023/03/11 03:04:37;;;;;;;3.03;2.25;;;;;;;8.78;100.00;92786.84;5142257;27;20204;-76
2023/03/11 03:07:04;;;;;;;4.38;2.92;;;;;;;8.67;100.00;92779.72;5138777;27;20216;-76
2023/03/11 03:09:31;;;;;;;6.57;3.60;;;;;;;8.84;100.00;92790.03;5142889;27;20604;-77
2023/03/11 03:11:58;;;;;;;8.68;3.88;;;;;;;8.88;100.00;92783.53;5146007;27;20221;-77
2023/03/11 03:14:25;;;;;;;7.13;3.38;;;;;;;8.75;100.00;92786.78;5141691;27;20212;-76
2023/03/11 03:16:52;;;;;;;5.53;3.38;;;;;;;8.74;100.00;92782.53;5149520;27;20232;-77
2023/03/11 03:19:20;;;;;;;6.45;3.28;;;;;;;8.86;100.00;92787.75;5142082;27;20280;-77
2023/03/11 03:21:46;;;;;;;14.02;4.05;;;;;;;8.78;100.00;92784.16;5139630;27;20924;-77
2023/03/11 03:24:13;;;;;;;6.00;3.75;;;;;;;8.78;100.00;92780.66;5152300;27;20715;-76
2023/03/11 03:26:40;;;;;;;9.35;3.55;;;;;;;8.65;100.00;92787.38;5152655;27;20300;-76
2023/03/11 03:29:07;;;;;;;6.53;3.55;;;;;;;8.61;100.00;92787.31;5148044;27;20200;-78
2023/03/11 03:31:34;;;;;;;3.30;2.15;;;;;;;8.62;100.00;92793.50;5138472;27;20201;-77
2023/03/11 03:34:03;;;;;;;6.13;2.92;;;;;;;8.66;100.00;92797.81;5152469;27;20230;-77
2023/03/11 03:36:31;;;;;;;3.20;1.67;;;;;;;8.74;100.00;92780.63;5138430;27;20238;-77
2023/03/11 03:38:58;;;;;;;0.40;0.40;;;;;;;9.22;95.35;92778.25;5150821;27;20228;-77
2023/03/11 03:41:25;;;;;;;1.67;1.40;;;;;;;9.46;95.89;92777.03;5137689;27;20196;-77
2023/03/11 03:43:53;;;;;;;0.60;0.60;;;;;;;9.49;92.01;92771.69;5139034;27;20201;-76
2023/03/11 03:46:20;;;;;;;0.30;0.30;;;;;;;9.94;87.22;92770.72;5145444;27;20249;-76
2023/03/11 03:48:47;;;;;;;0.45;0.30;;;;;;;9.99;86.97;92778.50;5144213;27;20619;-76
2023/03/11 03:51:14;;;;;;;0.30;0.30;;;;;;;10.15;84.70;92761.28;5138085;27;20212;-76
2023/03/11 03:53:45;;;;;;;0.30;0.30;;;;;;;10.23;83.51;92765.66;5151246;27;20612;-76
2023/03/11 03:56:14;;;;;;;0.30;0.30;;;;;;;10.37;82.56;92760.38;5138099;27;20188;-76
2023/03/11 03:58:41;;;;;;;3.40;0.40;;;;;;;10.42;80.42;92757.31;5136955;27;20709;-72
2023/03/11 04:01:09;;;;;;;0.38;0.38;;;;;;;10.37;82.61;92760.38;5138514;27;20200;-77
2023/03/11 04:03:37;;;;;;;0.30;0.30;;;;;;;10.40;81.96;92759.63;5136873;27;20196;-75
2023/03/11 04:06:08;;;;;;;0.30;0.30;;;;;;;10.38;82.62;92766.59;5139806;27;20204;-75
2023/03/11 04:08:35;;;;;;;0.28;0.28;;;;;;;10.42;80.52;92757.31;5137588;27;20548;-76
2023/03/11 04:11:04;;;;;;;0.40;0.40;;;;;;;10.53;79.68;92763.63;5142566;27;20675;-76
2023/03/11 04:13:31;;;;;;;0.38;0.38;;;;;;;10.49;81.76;92768.25;5145249;27;20288;-75
2023/03/11 04:15:58;;;;;;;0.30;0.30;;;;;;;10.40;81.77;92766.97;5141089;27;20196;-76
2023/03/11 04:18:24;;;;;;;0.43;0.43;;;;;;;10.34;81.21;92766.53;5137782;27;20250;-76
2023/03/11 04:20:51;;;;;;;0.20;0.20;;;;;;;10.36;80.16;92780.47;5141854;27;20249;-76
2023/03/11 04:23:18;;;;;;;0.35;0.35;;;;;;;10.25;80.14;92774.94;5148658;27;20196;-76
2023/03/11 04:25:45;;;;;;;0.32;0.32;;;;;;;10.35;78.68;92778.91;5140497;27;20200;-76
2023/03/11 04:28:13;;;;;;;1.98;0.40;;;;;;;10.32;78.52;92769.63;5130458;27;20655;-76
2023/03/11 04:30:40;;;;;;;0.47;0.30;;;;;;;10.35;77.93;92768.09;5139816;27;20201;-76
2023/03/11 04:33:07;;;;;;;0.30;0.30;;;;;;;10.35;79.05;92767.31;5148492;27;20249;-77
2023/03/11 04:35:34;;;;;;;0.50;0.30;;;;;;;10.18;79.84;92763.25;5140086;27;20209;-77
2023/03/11 04:38:00;;;;;;;0.30;0.30;;;;;;;10.17;80.79;92767.09;5144086;27;20289;-77
2023/03/11 04:40:27;;;;;;;0.30;0.30;;;;;;;10.15;78.31;92770.16;5141781;27;20244;-74
2023/03/11 04:42:54;;;;;;;0.40;0.40;;;;;;;10.29;79.29;92772.28;5137087;27;20208;-77
2023/03/11 04:45:22;;;;;;;0.40;0.40;;;;;;;10.27;79.16;92761.03;5139703;27;20346;-77
2023/03/11 04:47:50;;;;;;;0.30;0.30;;;;;;;10.25;77.09;92768.78;5144031;27;20212;-76
2023/03/11 04:50:17;;;;;;;0.32;0.30;;;;;;;10.23;78.87;92776.47;5141826;27;20814;-77
2023/03/11 04:52:44;;;;;;;0.40;0.40;;;;;;;10.26;79.08;92775.72;5136763;27;20259;-77
2023/03/11 04:55:12;;;;;;;0.35;0.35;;;;;;;10.19;79.67;92770.25;5144010;27;20272;-74
2023/03/11 04:57:39;;;;;;;0.55;0.38;;;;;;;10.35;78.11;92778.16;5136094;27;20674;-77
2023/03/11 05:00:09;;;;;;;0.45;0.43;;;;;;;10.46;76.62;92785.22;5150488;27;20276;-76
2023/03/11 05:02:39;;;;;;;0.47;0.40;;;;;;;10.53;76.38;92790.69;5130171;27;20215;-77
2023/03/11 05:05:07;;;;;;;0.73;0.30;;;;;;;10.53;75.53;92779.84;5144090;27;20200;-77
2023/03/11 05:07:34;;;;;;;0.30;0.30;;;;;;;10.67;75.52;92785.41;5137903;27;20208;-76
2023/03/11 05:10:00;;;;;;;0.20;0.20;;;;;;;10.73;75.62;92782.38;5137037;27;20620;-77
2023/03/11 05:12:27;;;;;;;0.40;0.40;;;;;;;10.81;73.89;92800.22;5142780;27;20648;-77
2023/03/11 05:14:54;;;;;;;0.73;0.40;;;;;;;10.80;74.69;92798.66;5143781;27;20319;-78
2023/03/11 05:17:21;;;;;;;0.30;0.30;;;;;;;10.78;74.37;92804.47;5137885;27;20228;-78
2023/03/11 05:19:49;;;;;;;0.28;0.28;;;;;;;10.80;75.05;92814.91;5150758;27;20228;-77
2023/03/11 05:22:17;;;;;;;0.32;0.32;;;;;;;10.86;74.46;92808.03;5150771;27;20192;-77
2023/03/11 05:24:43;;;;;;;0.30;0.30;;;;;;;10.76;74.52;92819.53;5136681;27;20209;-77
2023/03/11 05:27:10;;;;;;;0.50;0.50;;;;;;;10.82;73.23;92815.31;5131873;27;20204;-77
2023/03/11 05:29:37;;;;;;;0.85;0.60;;;;;;;10.87;74.11;92823.91;5143294;27;20562;-76
2023/03/11 05:32:04;;;;;;;0.65;0.45;;;;;;;10.92;74.13;92825.50;5138837;27;20208;-77
2023/03/11 05:34:31;;;;;;;0.30;0.30;;;;;;;10.97;73.82;92830.56;5148045;27;20200;-77
2023/03/11 05:37:00;;;;;;;0.30;0.30;;;;;;;10.96;72.32;92823.59;5139231;27;20201;-77
2023/03/11 05:39:27;;;;;;;0.30;0.30;;;;;;;11.02;73.40;92822.09;5133541;27;20516;-74
2023/03/11 05:41:55;;;;;;;0.52;0.40;;;;;;;10.98;74.52;92832.13;5135222;27;20606;-77
2023/03/11 05:44:22;;;;;;;0.30;0.30;;;;;;;10.99;73.70;92828.25;5143737;27;20224;-76
2023/03/11 05:46:48;;;;;;;0.30;0.30;;;;;;;10.98;74.24;92827.47;5139837;27;20658;-78
2023/03/11 05:49:15;;;;;;;0.35;0.35;;;;;;;11.09;73.11;92826.78;5136375;27;20203;-78
2023/03/11 05:51:42;;;;;;;0.40;0.40;;;;;;;11.17;73.72;92840.03;5139284;27;20197;-77
2023/03/11 05:54:13;;;;;;;0.30;0.30;;;;;;;11.16;73.57;92843.91;5129213;28;20201;-78
2023/03/11 05:56:41;;;;;;;0.88;0.65;;;;;;;11.06;75.10;92838.38;5140548;27;20714;-79
2023/03/11 05:59:07;;;;;;;0.90;0.40;;;;;;;10.96;76.12;92856.09;5136255;27;20288;-76
2023/03/11 06:01:34;;;;;;;2.63;0.43;;;;;;;10.91;76.14;92859.16;5139306;27;20258;-76
2023/03/11 06:04:01;;;;;;;0.57;0.57;;;;;;;10.93;76.88;92862.28;5149762;27;20200;-79
2023/03/11 06:06:28;;;;;;;0.30;0.30;;;;;;;10.87;76.20;92869.94;5141522;27;20224;-78
2023/03/11 06:08:55;;;;;;;1.40;1.05;;;;;;;10.85;76.43;92866.03;5136704;27;20203;-78
2023/03/11 06:11:24;;;;;;;0.50;0.50;;;;;;;10.84;75.92;92872.59;5142625;27;20642;-81
2023/03/11 06:13:53;;;;;;;0.50;0.50;;;;;;;10.83;76.94;92869.13;5153197;27;20235;-74
2023/03/11 06:16:19;;;;;;;0.43;0.43;;;;;;;10.76;76.42;92869.06;5154589;27;20331;-75
2023/03/11 06:18:49;;;;;;;0.30;0.30;;;;;;;10.74;77.55;92876.78;5130440;27;20950;-76
2023/03/11 06:21:18;;;;;;;0.52;0.50;;;;;;;10.69;77.82;92875.16;5136835;27;20196;-78
2023/03/11 06:23:45;;;;;;;0.30;0.30;;;;;;;10.59;78.31;92869.66;5146566;27;20203;-73
2023/03/11 06:26:14;;;;;;;0.52;0.52;;;;;;;10.55;78.12;92875.03;5148530;27;20293;-72
2023/03/11 06:28:43;;;;;;;5.85;0.43;;;;;;;10.60;79.25;92882.81;5138947;27;20284;-73
2023/03/11 06:31:12;;;;;;;0.75;0.50;;;;;;;10.62;79.71;92874.34;5136024;27;20204;-74
2023/03/11 06:33:38;;;;;;;0.60;0.60;;;;;;;10.82;80.79;92872.19;5144497;27;20204;-75
2023/03/11 06:36:06;;;;;;;0.70;0.50;;;;;;;10.83;79.37;92873.75;5136469;27;20287;-74
2023/03/11 06:38:35;;;;;;;1.52;0.70;;;;;;;10.86;79.74;92873.03;5142908;27;20225;-74
2023/03/11 06:41:05;;;;;;;0.30;0.30;;;;;;;10.93;78.77;92878.53;5142091;27;20238;-75
2023/03/11 06:43:32;;;;;;;3.03;0.80;;;;;;;11.07;78.95;92878.63;5140769;27;20216;-76
2023/03/11 06:46:01;;;;;;;0.75;0.50;;;;;;;11.05;75.72;92878.25;5143928;27;20196;-74
2023/03/11 06:48:28;;;;;;;0.77;0.50;;;;;;;11.13;76.43;92869.03;5149083;27;20208;-75
2023/03/11 06:50:55;;;;;;;0.30;0.30;;;;;;;11.25;75.36;92884.22;5143151;27;20604;-75
2023/03/11 06:53:22;;;;;;;0.55;0.50;;;;;;;11.23;76.11;92886.53;5153381;27;20204;-75
2023/03/11 06:55:59;;;;;;;2.13;0.70;;;;;;;11.27;75.65;92877.28;5153047;27;20265;-75
2023/03/11 06:58:26;;;;;;;0.68;0.50;;;;;;;11.30;75.21;92884.66;5153121;27;20187;-74
2023/03/11 07:00:53;;;;;;;0.60;0.60;;;;;;;11.44;74.44;92886.72;5146276;27;20253;-72
2023/03/11 07:03:21;;;;;;;5.13;2.92;;;;;;;11.64;73.50;92879.88;5132232;27;20201;-72
2023/03/11 07:05:51;;;;;;;0.82;0.65;;;;;;;11.63;74.06;92883.75;5139356;27;20196;-74
2023/03/11 07:08:18;;;;;;;0.73;0.60;;;;;;;11.51;75.04;92886.75;5152534;27;20215;-75
2023/03/11 07:10:45;;;;;;;0.98;0.63;;;;;;;11.43;75.46;92884.38;5145110;27;20838;-74
2023/03/11 07:13:12;;;;;;;2.13;0.80;;;;;;;11.62;76.38;92889.53;5144923;27;20211;-73
2023/03/11 07:15:38;;;;;;;1.00;0.68;;;;;;;11.86;76.27;92891.69;5139663;27;20200;-75
2023/03/11 07:18:05;;;;;;;0.93;0.80;;;;;;;11.93;74.81;92886.31;5137252;27;20229;-74
2023/03/11 07:20:33;;;;;;;1.38;0.50;;;;;;;12.13;75.68;92877.91;5132157;27;20293;-75
2023/03/11 07:23:00;;;;;;;0.50;0.50;;;;;;;12.19;73.43;92870.94;5146788;27;20647;-74
2023/03/11 07:25:27;;;;;;;0.50;0.50;;;;;;;11.98;72.60;92871.63;5144423;27;20204;-76
2023/03/11 07:27:54;;;;;;;2.05;0.60;;;;;;;12.16;72.71;92866.28;5145731;27;20876;-74
2023/03/11 07:30:20;;;;;;;0.90;0.50;;;;;;;12.22;72.30;92856.59;5140622;27;20197;-73
2023/03/11 07:32:47;;;;;;;0.57;0.57;;;;;;;12.00;71.12;92856.50;5146579;27;20226;-74
2023/03/11 07:35:14;;;;;;;0.88;0.40;;;;;;;12.14;70.57;92858.53;5142803;27;20261;-74
2023/03/11 07:37:42;;;;;;;0.98;0.65;;;;;;;12.29;69.90;92854.72;5142274;27;20184;-73
2023/03/11 07:40:10;;;;;;;0.88;0.52;;;;;;;12.44;69.34;92844.66;5142560;27;20225;-74
2023/03/11 07:42:39;;;;;;;1.90;0.50;;;;;;;11.85;67.58;92835.09;5138508;27;20216;-73
2023/03/11 07:45:06;;;;;;;0.47;0.47;;;;;;;11.89;66.74;92836.66;5145259;27;20196;-74
2023/03/11 07:47:33;;;;;;;0.40;0.35;;;;;;;12.00;67.32;92829.38;5139446;27;20265;-73
2023/03/11 07:50:00;;;;;;;1.45;0.60;;;;;;;12.21;68.18;92825.19;5139278;27;20327;-73
2023/03/11 07:52:30;;;;;;;0.50;0.50;;;;;;;12.27;67.91;92824.47;5137484;27;20192;-74
2023/03/11 07:54:58;;;;;;;0.82;0.50;;;;;;;12.20;66.55;92829.06;5140693;27;20221;-73
2023/03/11 07:57:25;;;;;;;0.68;0.40;;;;;;;12.13;66.74;92834.47;5142049;27;20204;-71
2023/03/11 07:59:52;;;;;;;0.40;0.40;;;;;;;12.01;66.63;92814.66;5139089;27;20297;-72
2023/03/11 08:02:19;;;;;;;0.70;0.68;;;;;;;12.35;67.62;92806.25;5138590;27;20201;-74
2023/03/11 08:04:46;;;;;;;0.32;0.32;;;;;;;12.58;65.90;92793.09;5136209;27;20253;-71
2023/03/11 08:07:12;;;;;;;0.50;0.50;;;;;;;12.77;66.18;92794.72;5137977;27;20197;-71
2023/03/11 08:09:39;;;;;;;5.07;0.55;;;;;;;12.84;66.35;92786.59;5143334;27;20228;-73
2023/03/11 08:12:09;;;;;;;4.57;0.60;;;;;;;13.10;65.89;92786.22;5140907;27;20245;-77
2023/03/11 08:14:35;;;;;;;2.13;0.80;;;;;;;13.44;65.53;92786.59;5140284;27;20193;-75
2023/03/11 08:17:03;;;;;;;3.58;0.80;;;;;;;13.74;62.24;92766.34;5142361;27;20272;-74
2023/03/11 08:19:30;;;;;;;0.95;0.82;;;;;;;14.18;58.87;92766.59;5138811;27;20568;-73
2023/03/11 08:21:57;;;;;;;0.80;0.70;;;;;;;14.18;58.01;92758.41;5139206;27;20648;-74
2023/03/11 08:24:24;;;;;;;0.60;0.60;;;;;;;14.22;56.19;92759.16;5136063;27;20541;-74
2023/03/11 08:26:50;;;;;;;3.40;0.80;;;;;;;13.99;56.69;92758.88;5140887;27;20222;-76
2023/03/11 08:29:18;;;;;;;1.58;0.93;;;;;;;14.09;57.42;92749.88;5137142;27;20197;-72
2023/03/11 08:31:45;;;;;;;1.42;0.90;;;;;;;14.14;57.90;92741.31;5139524;27;20200;-75
2023/03/11 08:34:12;;;;;;;2.83;0.82;;;;;;;14.37;56.83;92740.03;5141101;27;20189;-74
2023/03/11 08:36:39;;;;;;;1.00;0.77;;;;;;;14.64;57.22;92743.00;5139499;27;20264;-75
2023/03/11 08:39:05;;;;;;;0.88;0.60;;;;;;;14.66;58.32;92733.28;5138692;27;20748;-77
2023/03/11 08:41:33;;;;;;;2.10;0.55;;;;;;;14.82;56.94;92730.81;5140384;27;20936;-75
2023/03/11 08:43:59;;;;;;;0.80;0.60;;;;;;;15.23;56.53;92741.03;5141375;27;20265;-78
2023/03/11 08:46:30;;;;;;;0.47;0.47;;;;;;;15.14;55.82;92733.31;5140150;27;20189;-76
2023/03/11 08:48:57;;;;;;;3.00;0.60;;;;;;;14.88;54.30;92728.47;5138357;27;20257;-77
2023/03/11 08:51:26;;;;;;;1.25;0.70;;;;;;;15.04;55.07;92719.75;5140279;27;20724;-78
2023/03/11 08:53:53;;;;;;;3.63;0.90;;;;;;;15.18;55.20;92727.81;5135193;27;20201;-74
2023/03/11 08:56:20;;;;;;;0.50;0.50;;;;;;;14.71;56.23;92719.22;5129769;27;20226;-77
2023/03/11 08:58:47;;;;;;;1.55;0.80;;;;;;;14.83;55.85;92729.66;5137973;27;20565;-76
2023/03/11 09:01:14;;;;;;;2.45;1.00;;;;;;;15.04;56.35;92714.28;5137418;27;20193;-76
2023/03/11 09:03:43;;;;;;;1.13;0.85;;;;;;;15.07;55.34;92714.28;5133112;27;20193;-77
2023/03/11 09:06:14;;;;;;;2.03;0.73;;;;;;;15.15;54.73;92715.00;5146671;27;20249;-78
2023/03/11 09:08:41;;;;;;;1.30;0.82;;;;;;;15.06;53.91;92711.94;5141105;27;20268;-78
2023/03/11 09:11:08;;;;;;;1.23;0.80;;;;;;;14.15;56.32;92718.38;5141703;27;20632;-78
2023/03/11 09:13:35;;;;;;;0.88;0.70;;;;;;;13.85;57.61;92720.81;5135233;27;20684;-77
2023/03/11 09:16:04;;;;;;;1.83;0.77;;;;;;;13.91;57.89;92715.75;5140050;27;20211;-76
2023/03/11 09:18:31;;;;;;;3.25;1.40;;;;;;;14.04;58.25;92714.91;5146235;27;20279;-77
2023/03/11 09:21:00;;;;;;;1.52;0.95;;;;;;;14.07;58.61;92707.91;5140650;27;20272;-76
2023/03/11 09:23:27;;;;;;;1.80;0.93;;;;;;;14.19;59.63;92708.22;5150653;27;20212;-76
2023/03/11 09:25:53;;;;;;;2.03;0.90;;;;;;;14.51;58.37;92705.34;5150340;27;20233;-76
2023/03/11 09:28:20;;;;;;;1.50;0.90;;;;;;;14.21;59.41;92696.94;5145518;27;20205;-78
2023/03/11 09:30:47;;;;;;;1.88;1.00;;;;;;;13.99;59.50;92704.44;5138378;27;20216;-77
2023/03/11 09:33:13;;;;;;;2.17;1.05;;;;;;;14.03;59.90;92694.31;5149282;27;20200;-77
2023/03/11 09:35:40;;;;;;;1.33;1.10;;;;;;;14.28;59.77;92690.66;5138105;27;20273;-78
2023/03/11 09:38:08;;;;;;;1.90;1.17;;;;;;;14.53;59.51;92691.31;5148785;27;20249;-78
2023/03/11 09:40:48;;;;;;;2.35;1.20;;;;;;;14.40;59.64;92682.06;5136962;27;20632;-78
2023/03/11 09:43:29;;;;;;;4.00;1.35;;;;;;;14.69;58.76;92680.69;5129673;28;20185;-77
2023/03/11 09:46:04;;;;;;;3.00;1.10;;;;;;;15.22;54.88;92674.00;5140923;27;20273;-77
2023/03/11 09:48:37;;;;;;;4.35;1.50;;;;;;;15.63;54.91;92674.78;5139739;27;20228;-78
2023/03/11 09:51:14;;;;;;;2.60;1.35;;;;;;;15.98;54.03;92678.28;5140680;27;20195;-77
2023/03/11 09:53:43;;;;;;;2.55;1.17;;;;;;;15.62;53.90;92673.22;5139715;27;20214;-78
2023/03/11 09:56:14;;;;;;;5.15;1.95;;;;;;;15.99;53.65;92674.34;5146673;27;20712;-80
2023/03/11 09:58:44;;;;;;;2.15;0.93;;;;;;;15.95;53.38;92679.09;5145034;27;20238;-78
2023/03/11 10:01:18;;;;;;;1.48;1.00;;;;;;;15.94;52.08;92683.03;5140327;27;20614;-78
2023/03/11 10:03:45;;;;;;;3.20;0.98;;;;;;;15.85;53.67;92680.00;5137687;27;20245;-79
2023/03/11 10:06:15;;;;;;;0.90;0.82;;;;;;;16.00;53.01;92670.44;5134726;27;20188;-79
2023/03/11 10:08:47;;;;;;;1.83;0.77;;;;;;;16.13;51.88;92678.88;5132815;27;20231;-75
2023/03/11 10:11:37;;;;;;;1.45;1.17;;;;;;;16.30;52.18;92678.63;5146844;27;20255;-79
2023/03/11 10:14:14;;;;;;;2.47;0.80;;;;;;;16.33;50.80;92677.81;5139647;27;20201;-77
2023/03/11 10:16:52;;;;;;;4.07;1.10;;;;;;;16.06;51.67;92679.75;5128532;28;20281;-78
2023/03/11 10:19:30;;;;;;;1.13;1.00;;;;;;;15.51;51.77;92705.28;5137786;27;20241;-79
2023/03/11 10:22:10;;;;;;;1.63;0.77;;;;;;;15.39;50.93;92705.81;5138380;27;20193;-79
2023/03/11 10:24:50;;;;;;;1.52;0.80;;;;;;;15.26;52.49;92712.94;5135964;27;20794;-76
2023/03/11 10:27:21;;;;;;;1.95;1.13;;;;;;;15.36;51.64;92709.34;5140988;27;20195;-75
2023/03/11 10:29:56;;;;;;;1.30;0.80;;;;;;;15.33;52.51;92715.59;5142734;27;20238;-79
2023/03/11 10:32:30;;;;;;;1.77;0.85;;;;;;;15.66;50.82;92705.19;5143435;27;20566;-80
2023/03/11 10:35:04;;;;;;;2.08;0.93;;;;;;;15.84;50.91;92698.34;5137267;27;20192;-77
2023/03/11 10:37:35;;;;;;;2.35;0.85;;;;;;;16.26;50.12;92694.28;5142077;27;20192;-78
2023/03/11 10:40:15;;;;;;;1.10;0.80;;;;;;;16.25;48.97;92698.25;5142127;27;20212;-77
2023/03/11 10:42:44;;;;;;;1.70;0.80;;;;;;;15.84;48.91;92705.75;5140534;27;20203;-78
2023/03/11 10:45:13;;;;;;;1.83;0.68;;;;;;;15.77;50.09;92700.38;5142142;27;20234;-78
2023/03/11 10:47:40;;;;;;;1.60;0.88;;;;;;;15.43;49.52;92697.59;5149210;27;20275;-76
2023/03/11 10:50:12;;;;;;;2.15;0.73;;;;;;;15.46;50.08;92678.44;5152451;27;20200;-78
2023/03/11 10:53:08;;;;;;;1.17;0.70;;;;;;;15.31;50.81;92701.59;5141986;27;20248;-78
2023/03/11 10:55:45;;;;;;;1.95;0.95;;;;;;;14.92;51.98;92710.88;5141162;27;20228;-77
2023/03/11 10:58:15;;;;;;;2.40;1.05;;;;;;;14.48;54.90;92733.41;5138882;27;20279;-80
2023/03/11 11:00:41;;;;;;;0.60;0.60;;;;;;;13.97;59.43;92736.72;5151144;27;20370;-80
2023/03/11 11:03:19;;;;;;;1.73;0.77;;;;;;;13.76;63.03;92742.25;5152573;27;20719;-77
2023/03/11 11:05:58;;;;;;;0.80;0.68;;;;;;;13.96;61.56;92740.59;5153125;27;20415;-78
2023/03/11 11:08:25;;;;;;;1.67;0.70;;;;;;;14.14;59.12;92730.41;5146161;27;20216;-78
2023/03/11 11:10:55;;;;;;;3.28;1.08;;;;;;;14.77;59.14;92725.78;5142992;27;20196;-78
2023/03/11 11:13:23;;;;;;;1.95;1.00;;;;;;;15.18;55.67;92714.94;5138952;27;20225;-77
2023/03/11 11:15:55;;;;;;;2.58;1.05;;;;;;;15.25;55.26;92714.91;5152989;27;20251;-78
2023/03/11 11:18:25;;;;;;;3.53;1.13;;;;;;;15.35;54.76;92707.78;5148763;27;20365;-77
2023/03/11 11:21:01;;;;;;;1.63;0.90;;;;;;;15.44;53.34;92705.38;5145529;27;20224;-77
2023/03/11 11:23:33;;;;;;;2.42;0.95;;;;;;;15.19;53.43;92702.88;5152608;27;20216;-77
2023/03/11 11:26:04;;;;;;;1.13;0.80;;;;;;;15.26;53.61;92694.63;5152555;27;20193;-76
2023/03/11 11:28:32;;;;;;;3.10;1.20;;;;;;;15.41;55.08;92705.41;5135291;27;20182;-77
2023/03/11 11:31:02;;;;;;;1.90;1.08;;;;;;;15.01;55.07;92704.22;5139689;27;20203;-78
2023/03/11 11:33:30;;;;;;;5.10;1.50;;;;;;;14.49;60.27;92702.22;5144361;27;20254;-76
2023/03/11 11:36:02;;;;;;;2.17;1.30;;;;;;;14.15;62.59;92687.63;5146192;27;20204;-78
2023/03/11 11:38:31;;;;;;;3.42;1.13;;;;;;;14.03;62.19;92677.97;5148909;27;20196;-77
2023/03/11 11:41:03;;;;;;;3.90;1.10;;;;;;;14.30;63.34;92672.00;5149738;27;20779;-78